Time;durP1;ratioP1;P1;durP2;ratioP2;P2;SDS_P1;SDS_P2;PMS_P1;PMS_P2;Temp;Humidity;BMP_temperature;BMP_pressure;BME280_temperature;BME280_humidity;BME280_pressure;Samples;Min_cycle;Max_cycle;Signal;HPM_P1;HPM_P2
2023/06/05 00:01:35;;;;;;;4.82;2.40;;;;;;;16.58;65.33;100979.97;8389667;28;20052;-59
2023/06/05 00:05:36;;;;;;;4.20;1.58;;;;;;;17.11;62.70;100977.63;8390235;28;20471;-60
2023/06/05 00:09:36;;;;;;;4.15;1.85;;;;;;;17.40;61.38;100989.75;8389053;28;20028;-59
2023/06/05 00:13:37;;;;;;;2.78;1.38;;;;;;;17.34;61.75;100978.63;8389425;28;20055;-59
2023/06/05 00:17:37;;;;;;;5.03;2.30;;;;;;;16.86;64.38;100993.16;8388656;28;20324;-60
2023/06/05 00:21:38;;;;;;;4.22;1.85;;;;;;;16.57;66.41;100997.38;8387199;28;20075;-59
2023/06/05 00:25:39;;;;;;;2.78;1.60;;;;;;;16.39;66.96;100991.16;8389578;28;20044;-59
2023/06/05 00:29:39;;;;;;;3.33;1.63;;;;;;;16.27;67.12;100987.88;8387946;28;20040;-59
2023/06/05 00:33:40;;;;;;;3.88;1.92;;;;;;;15.92;69.19;100987.22;8388225;28;20526;-59
2023/06/05 00:37:41;;;;;;;2.53;1.50;;;;;;;15.70;70.75;100984.06;8387481;28;20111;-59
2023/06/05 00:41:41;;;;;;;2.72;1.75;;;;;;;15.67;71.56;100989.84;8387823;28;20055;-59
2023/06/05 00:45:42;;;;;;;4.03;2.00;;;;;;;15.42;70.55;100987.97;8388184;28;20044;-59
2023/06/05 00:49:42;;;;;;;4.53;2.10;;;;;;;15.02;74.71;100987.63;8387957;28;20033;-59
2023/06/05 00:53:46;;;;;;;4.47;2.20;;;;;;;14.90;75.50;100988.88;8386870;28;20060;-59
2023/06/05 00:57:47;;;;;;;4.93;2.13;;;;;;;14.76;75.05;100985.88;8387616;28;20120;-59
2023/06/05 01:01:50;;;;;;;5.03;2.50;;;;;;;14.68;75.14;100994.81;8386994;28;20056;-60
2023/06/05 01:05:51;;;;;;;3.67;1.85;;;;;;;14.74;74.29;100982.44;8388127;28;20135;-60
2023/06/05 01:09:52;;;;;;;3.50;2.25;;;;;;;14.95;73.61;100997.44;8387109;28;20093;-59
2023/06/05 01:14:07;;;;;;;7.47;2.10;;;;;;;15.12;71.80;100992.97;8386472;28;20047;-60
2023/06/05 01:18:09;;;;;;;4.38;2.10;;;;;;;15.05;72.73;100989.19;8386534;28;20596;-59
2023/06/05 01:22:12;;;;;;;5.97;2.13;;;;;;;14.92;73.37;100986.88;8386593;28;20068;-59
2023/06/05 01:26:21;;;;;;;2.78;1.70;;;;;;;15.05;71.26;100970.97;8387123;28;20542;-59
2023/06/05 01:30:30;;;;;;;6.65;1.88;;;;;;;14.90;71.79;100978.00;8374487;28;20040;-60
2023/06/05 01:34:31;;;;;;;6.32;2.20;;;;;;;14.71;73.47;100978.19;8387014;28;20066;-59
2023/06/05 01:38:34;;;;;;;4.82;2.00;;;;;;;14.82;72.55;100977.91;8383998;28;20032;-59
2023/06/05 01:42:37;;;;;;;7.20;2.17;;;;;;;14.64;72.70;100982.50;8384369;28;20036;-60
2023/06/05 01:46:37;;;;;;;4.28;2.50;;;;;;;14.65;73.67;100978.78;8385533;28;20495;-60
2023/06/05 01:50:38;;;;;;;9.38;2.35;;;;;;;14.77;73.21;100972.09;8387099;28;20398;-60
2023/06/05 01:54:42;;;;;;;3.33;2.15;;;;;;;14.60;73.81;100972.94;8385853;28;20067;-59
2023/06/05 01:58:44;;;;;;;5.43;2.30;;;;;;;14.73;72.95;100969.84;8386226;28;20560;-59
2023/06/05 02:02:46;;;;;;;3.92;2.30;;;;;;;14.68;73.85;100972.19;8385622;28;20044;-59
2023/06/05 02:06:48;;;;;;;5.75;2.00;;;;;;;14.85;73.25;100969.44;8383679;28;20028;-59
2023/06/05 02:10:49;;;;;;;3.85;2.30;;;;;;;14.78;73.66;100962.91;8385396;28;20045;-59
2023/06/05 02:14:50;;;;;;;6.13;2.10;;;;;;;14.98;73.58;100959.00;8386298;28;20040;-60
2023/06/05 02:18:50;;;;;;;4.47;2.38;;;;;;;14.79;74.34;100961.91;8385938;28;20064;-60
2023/06/05 02:22:51;;;;;;;4.97;2.55;;;;;;;14.71;75.24;100955.53;8386404;28;20056;-59
2023/06/05 02:26:52;;;;;;;12.15;2.40;;;;;;;14.96;75.10;100961.03;8392272;28;20040;-60
2023/06/05 02:30:54;;;;;;;4.15;2.20;;;;;;;14.89;75.94;100965.41;8392786;28;20055;-60
2023/06/05 02:34:56;;;;;;;9.90;2.80;;;;;;;14.97;76.51;100957.28;8393311;28;20051;-60
2023/06/05 02:38:57;;;;;;;4.07;2.30;;;;;;;14.96;76.53;100955.59;8390361;28;20044;-59
2023/06/05 02:42:58;;;;;;;6.10;2.33;;;;;;;14.67;77.27;100949.53;8391839;28;20583;-60
2023/06/05 02:46:58;;;;;;;5.50;2.47;;;;;;;14.53;78.66;100952.81;8392387;28;20597;-59
2023/06/05 02:50:59;;;;;;;7.55;2.67;;;;;;;14.52;79.04;100945.66;8392541;28;20441;-59
2023/06/05 02:55:01;;;;;;;7.00;3.00;;;;;;;14.92;79.40;100946.03;8392546;28;20037;-59
2023/06/05 02:59:03;;;;;;;6.13;3.20;;;;;;;15.17;79.39;100936.16;8392200;28;20075;-59
2023/06/05 03:03:06;;;;;;;5.70;2.90;;;;;;;15.07;79.50;100941.69;8392197;28;20048;-59
2023/06/05 03:07:09;;;;;;;7.85;3.22;;;;;;;14.65;80.54;100939.81;8391698;28;20407;-60
2023/06/05 03:11:12;;;;;;;6.10;3.10;;;;;;;14.52;81.31;100942.09;8391963;28;20498;-59
2023/06/05 03:15:13;;;;;;;11.63;3.50;;;;;;;14.36;82.26;100944.66;8391612;28;20485;-59
2023/06/05 03:19:15;;;;;;;6.60;3.47;;;;;;;14.26;82.56;100939.28;8390567;28;20041;-59
2023/06/05 03:23:18;;;;;;;5.95;3.10;;;;;;;14.25;83.16;100953.91;8390693;28;20066;-60
2023/06/05 03:27:18;;;;;;;8.15;3.40;;;;;;;14.15;83.59;100947.59;8389290;28;20158;-60
2023/06/05 03:31:19;;;;;;;5.78;3.22;;;;;;;14.09;85.05;100948.22;8390474;28;20088;-60
2023/06/05 03:35:22;;;;;;;7.40;3.10;;;;;;;14.15;84.77;100942.16;8390716;28;20040;-59
2023/06/05 03:39:22;;;;;;;9.85;3.80;;;;;;;14.12;84.74;100947.06;8412862;28;20075;-60
2023/06/05 03:43:24;;;;;;;11.23;4.38;;;;;;;14.13;85.48;100948.78;8387953;28;20147;-60
2023/06/05 03:47:28;;;;;;;9.73;3.92;;;;;;;14.26;85.08;100947.44;8388958;28;20040;-60
2023/06/05 03:51:29;;;;;;;10.13;3.92;;;;;;;14.18;86.43;100957.34;8391198;28;20076;-59
2023/06/05 03:55:40;;;;;;;10.85;3.65;;;;;;;14.28;85.97;100959.03;8388744;28;20036;-60
2023/06/05 03:59:42;;;;;;;5.65;3.28;;;;;;;14.33;85.75;100956.69;8389836;28;20127;-60
2023/06/05 04:03:43;;;;;;;13.32;4.45;;;;;;;14.39;86.23;100950.63;8369007;28;20037;-60
2023/06/05 04:07:43;;;;;;;5.50;3.47;;;;;;;14.48;86.18;100957.88;8369651;28;20036;-60
2023/06/05 04:11:45;;;;;;;9.43;3.97;;;;;;;14.55;86.52;100950.78;8399468;28;20385;-59
2023/06/05 04:15:48;;;;;;;6.32;3.92;;;;;;;14.57;86.59;100954.22;8379671;28;20578;-59
2023/06/05 04:19:49;;;;;;;8.77;3.42;;;;;;;14.64;86.69;100960.75;8352257;28;20036;-60
2023/06/05 04:23:50;;;;;;;11.52;4.28;;;;;;;14.40;87.89;100965.09;8365714;28;20457;-59
2023/06/05 04:27:51;;;;;;;11.70;3.88;;;;;;;14.43;88.43;100962.06;8346440;28;20049;-60
2023/06/05 04:31:52;;;;;;;10.27;4.43;;;;;;;14.52;88.80;100961.16;8351157;28;20064;-60
2023/06/05 04:35:53;;;;;;;10.85;4.72;;;;;;;14.78;88.22;100956.59;8352655;28;20447;-60
2023/06/05 04:39:54;;;;;;;10.95;4.40;;;;;;;15.11;87.34;100959.47;8379550;28;20101;-60
2023/06/05 04:43:57;;;;;;;11.10;3.92;;;;;;;15.43;85.28;100962.44;8370177;28;20044;-60
2023/06/05 04:47:58;;;;;;;10.35;4.07;;;;;;;15.53;84.69;100959.59;8378473;28;20052;-60
2023/06/05 04:51:59;;;;;;;8.95;4.40;;;;;;;15.76;84.44;100970.81;8356357;28;20087;-59
2023/06/05 04:56:01;;;;;;;8.40;3.83;;;;;;;15.92;83.26;100971.72;8355883;28;20076;-59
2023/06/05 05:00:04;;;;;;;9.40;4.10;;;;;;;16.26;82.75;100968.94;8354619;28;20045;-60
2023/06/05 05:04:06;;;;;;;7.53;4.00;;;;;;;16.34;82.12;100968.94;8355071;28;20530;-60
2023/06/05 05:08:06;;;;;;;15.77;4.40;;;;;;;16.48;81.82;100969.22;8378333;28;20380;-60
2023/06/05 05:12:07;;;;;;;9.43;4.47;;;;;;;16.55;81.71;100972.09;8385035;28;20055;-60
2023/06/05 05:16:10;;;;;;;15.20;5.13;;;;;;;16.79;80.97;100977.63;8379571;28;20052;-60
2023/06/05 05:20:10;;;;;;;8.27;4.50;;;;;;;17.11;80.82;100973.00;8374762;28;20406;-60
2023/06/05 05:24:12;;;;;;;9.02;4.63;;;;;;;17.19;80.92;100977.63;8371195;28;20171;-60
2023/06/05 05:28:14;;;;;;;13.30;4.80;;;;;;;17.21;82.01;100981.03;8373644;28;20045;-60
2023/06/05 05:32:15;;;;;;;11.45;5.18;;;;;;;17.45;80.27;100981.88;8354598;28;20041;-60
2023/06/05 05:36:16;;;;;;;11.23;4.22;;;;;;;17.60;81.34;100984.78;8353057;28;20033;-60
2023/06/05 05:40:17;;;;;;;9.60;4.32;;;;;;;17.66;80.48;100988.69;8354933;28;20521;-60
2023/06/05 05:44:19;;;;;;;10.32;4.80;;;;;;;18.09;77.56;100982.72;8346048;28;20450;-60
2023/06/05 05:48:19;;;;;;;11.23;5.13;;;;;;;17.96;76.57;100986.03;8341451;28;20040;-59
2023/06/05 05:52:22;;;;;;;12.60;5.65;;;;;;;18.10;78.18;100998.97;8350518;28;20037;-59
2023/06/05 05:56:22;;;;;;;8.30;4.85;;;;;;;18.46;76.90;100988.41;8350722;28;20067;-59
2023/06/05 06:00:24;;;;;;;9.15;4.90;;;;;;;18.42;74.35;100993.38;8366784;28;20036;-59
2023/06/05 06:04:24;;;;;;;14.73;4.93;;;;;;;18.25;74.72;100986.25;8356364;28;20044;-59
2023/06/05 06:08:26;;;;;;;11.27;5.10;;;;;;;18.21;74.87;100984.88;8340962;28;20048;-59
2023/06/05 06:12:27;;;;;;;10.93;4.75;;;;;;;18.67;75.12;100978.50;8348000;28;20408;-59
2023/06/05 06:16:28;;;;;;;11.73;5.35;;;;;;;18.82;73.97;100990.38;8349720;28;20681;-59
2023/06/05 06:20:28;;;;;;;12.45;5.13;;;;;;;18.91;71.57;100983.78;8352137;28;20041;-59
2023/06/05 06:24:29;;;;;;;8.57;4.53;;;;;;;19.03;71.35;100987.81;8351977;28;20491;-59
2023/06/05 06:28:29;;;;;;;10.30;4.25;;;;;;;19.27;72.04;100976.69;8352377;28;20507;-59
2023/06/05 06:32:30;;;;;;;8.25;4.43;;;;;;;19.13;70.29;100988.41;8353589;28;20044;-59
2023/06/05 06:36:30;;;;;;;9.13;4.97;;;;;;;19.19;70.10;100990.41;8353406;28;20556;-59
2023/06/05 06:40:31;;;;;;;11.98;4.70;;;;;;;19.66;70.05;100994.81;8352958;28;20037;-59
2023/06/05 06:44:32;;;;;;;8.55;4.40;;;;;;;20.34;68.22;100989.91;8350852;28;20036;-59
2023/06/05 06:48:32;;;;;;;10.75;4.32;;;;;;;20.30;66.84;101005.91;8350746;28;20116;-59
2023/06/05 06:52:33;;;;;;;10.82;4.50;;;;;;;20.18;67.09;101004.69;8351236;28;20037;-66
2023/06/05 06:56:33;;;;;;;9.52;4.88;;;;;;;20.38;67.14;101002.22;8350001;28;20036;-66
2023/06/05 07:00:33;;;;;;;9.23;4.00;;;;;;;20.43;66.61;101008.81;8349332;28;20066;-66
2023/06/05 07:04:34;;;;;;;11.85;4.85;;;;;;;20.25;66.66;101004.81;8371676;28;20055;-66
2023/06/05 07:08:34;;;;;;;9.13;3.92;;;;;;;20.95;66.35;101005.88;8378852;28;20041;-66
2023/06/05 07:12:35;;;;;;;10.68;4.63;;;;;;;21.25;66.50;101001.94;8355537;28;20115;-65
2023/06/05 07:16:35;;;;;;;8.25;4.00;;;;;;;20.82;64.48;101000.19;8355108;28;20033;-66
2023/06/05 07:20:36;;;;;;;7.47;4.37;;;;;;;21.38;66.43;101007.56;8355738;28;20071;-66
2023/06/05 07:24:38;;;;;;;6.90;4.13;;;;;;;21.04;64.64;101011.03;8356252;28;20287;-66
2023/06/05 07:28:39;;;;;;;9.35;4.97;;;;;;;20.97;64.33;101003.78;8354876;28;20045;-65
2023/06/05 07:32:42;;;;;;;10.05;4.50;;;;;;;21.42;64.39;101003.38;8356681;28;20079;-66
2023/06/05 07:36:45;;;;;;;9.48;4.63;;;;;;;21.32;62.38;100994.59;8357430;28;20033;-66
2023/06/05 07:40:46;;;;;;;8.70;3.93;;;;;;;21.66;61.94;101004.81;8354862;28;20123;-66
2023/06/05 07:44:48;;;;;;;8.30;4.45;;;;;;;21.49;61.82;100993.25;8357249;28;20033;-65
2023/06/05 07:48:48;;;;;;;8.60;4.55;;;;;;;21.55;60.70;100986.09;8346040;28;20048;-66
2023/06/05 07:52:49;;;;;;;8.77;4.13;;;;;;;22.08;61.64;100989.03;8357126;28;20037;-65
2023/06/05 07:56:50;;;;;;;9.32;4.20;;;;;;;21.98;59.93;100991.31;8357432;28;20037;-66
2023/06/05 08:00:51;;;;;;;7.78;4.20;;;;;;;22.12;59.84;100990.34;8358801;28;20183;-65
2023/06/05 08:04:52;;;;;;;9.77;4.22;;;;;;;22.74;61.00;100990.19;8359372;28;20496;-60
2023/06/05 08:08:52;;;;;;;12.55;4.72;;;;;;;22.51;60.49;100984.19;8357047;28;20575;-58
2023/06/05 08:12:53;;;;;;;9.88;4.20;;;;;;;22.64;59.81;100985.09;8357095;28;20033;-58
2023/06/05 08:16:55;;;;;;;10.63;3.83;;;;;;;22.54;58.50;100981.84;8356165;28;20043;-58
2023/06/05 08:20:55;;;;;;;11.35;4.15;;;;;;;23.01;60.28;100980.91;8355947;28;20045;-58
2023/06/05 08:24:59;;;;;;;10.00;3.75;;;;;;;23.39;56.76;100972.94;8355902;28;20048;-58
2023/06/05 08:29:00;;;;;;;7.80;3.63;;;;;;;23.02;56.95;100966.06;8371554;28;20033;-58
2023/06/05 08:33:00;;;;;;;7.90;3.47;;;;;;;23.54;56.45;100962.50;8372527;28;20044;-58
2023/06/05 08:37:02;;;;;;;14.20;3.40;;;;;;;23.29;55.72;100962.28;8387428;28;20045;-58
2023/06/05 08:41:07;;;;;;;8.38;3.70;;;;;;;23.44;55.94;100973.13;8369052;28;20131;-58
2023/06/05 08:45:08;;;;;;;6.07;3.17;;;;;;;23.60;55.99;100958.91;8329730;28;20045;-58
2023/06/05 08:49:11;;;;;;;6.20;3.28;;;;;;;24.18;55.64;100956.00;8321506;28;20040;-58
2023/06/05 08:53:12;;;;;;;10.40;3.20;;;;;;;24.45;57.43;100953.97;8345392;28;20515;-58
2023/06/05 08:57:13;;;;;;;7.30;2.60;;;;;;;24.33;52.79;100961.25;8353768;28;20037;-58
2023/06/05 09:01:13;;;;;;;4.32;2.85;;;;;;;24.33;52.05;100956.59;8351533;28;20048;-58
2023/06/05 09:05:15;;;;;;;7.22;3.17;;;;;;;24.39;51.56;100960.38;8353196;28;20029;-58
2023/06/05 09:09:16;;;;;;;7.53;3.00;;;;;;;24.42;52.78;100955.28;8353155;28;20043;-58
2023/06/05 09:13:16;;;;;;;6.95;2.97;;;;;;;24.46;51.63;100952.94;8355491;28;20496;-58
2023/06/05 09:17:17;;;;;;;6.57;2.83;;;;;;;25.21;51.28;100941.81;8354754;28;20074;-58
2023/06/05 09:21:18;;;;;;;5.68;2.45;;;;;;;25.44;52.76;100950.38;8354305;28;20040;-59
2023/06/05 09:25:19;;;;;;;13.07;3.20;;;;;;;25.39;49.75;100947.44;8354880;28;20143;-59
2023/06/05 09:29:21;;;;;;;5.60;3.70;;;;;;;25.20;49.93;100940.13;8354662;28;20037;-58
2023/06/05 09:33:23;;;;;;;6.20;2.50;;;;;;;25.66;50.35;100948.91;8354221;28;20267;-58
2023/06/05 09:37:32;;;;;;;7.00;3.17;;;;;;;25.96;50.54;100933.22;8354827;28;20412;-58
2023/06/05 09:41:42;;;;;;;6.68;2.60;;;;;;;25.85;51.43;100936.75;8354551;28;20037;-58
2023/06/05 09:45:43;;;;;;;4.68;2.75;;;;;;;25.73;48.92;100916.41;8354083;28;20040;-63
2023/06/05 09:49:48;;;;;;;9.27;3.42;;;;;;;25.69;49.75;100930.97;8351854;28;20044;-63
2023/06/05 09:53:50;;;;;;;4.43;2.45;;;;;;;26.27;50.23;100924.78;8351500;28;20554;-65
2023/06/05 09:57:51;;;;;;;5.95;2.42;;;;;;;26.93;45.54;100918.31;8351078;28;20037;-63
2023/06/05 10:01:53;;;;;;;8.75;2.63;;;;;;;27.99;44.32;100919.91;8350230;28;20045;-62
2023/06/05 10:05:54;;;;;;;7.57;2.90;;;;;;;29.03;41.98;100917.56;8352157;28;20048;-62
2023/06/05 10:09:57;;;;;;;5.15;2.75;;;;;;;30.41;41.91;100913.59;8350773;28;20056;-63
2023/06/05 10:13:59;;;;;;;6.90;2.33;;;;;;;31.61;39.87;100910.34;8353304;28;20092;-63
2023/06/05 10:18:00;;;;;;;3.60;1.40;;;;;;;31.94;39.52;100910.03;8352322;28;20041;-63
2023/06/05 10:22:01;;;;;;;3.78;1.90;;;;;;;31.58;38.57;100905.28;8353479;28;20049;-63
2023/06/05 10:26:15;;;;;;;7.95;2.30;;;;;;;31.29;39.83;100902.00;8352926;28;20649;-63
2023/06/05 10:34:47;;;;;;;6.95;2.10;;;;;;;32.74;37.64;100899.19;8405105;27;20929;-64
2023/06/05 10:38:48;;;;;;;9.00;2.20;;;;;;;33.31;36.54;100902.66;8398714;27;20043;-63
2023/06/05 10:42:49;;;;;;;5.05;1.90;;;;;;;32.93;36.77;100891.97;8398746;27;20036;-63
2023/06/05 10:46:49;;;;;;;6.13;1.70;;;;;;;32.66;37.18;100891.34;8398374;27;20094;-62
2023/06/05 10:50:49;;;;;;;3.63;2.03;;;;;;;32.42;37.39;100895.75;8397842;27;20028;-63
2023/06/05 10:59:13;;;;;;;5.60;2.05;;;;;;;32.52;37.46;100883.72;8315586;28;20404;-64
2023/06/05 11:03:13;;;;;;;5.25;1.58;;;;;;;32.94;37.11;100893.66;8313036;28;20038;-63
2023/06/05 11:07:21;;;;;;;3.57;1.87;;;;;;;34.24;34.70;100891.84;8313714;28;20049;-63
2023/06/05 11:11:22;;;;;;;6.03;1.75;;;;;;;34.04;36.21;100891.91;8315867;28;20288;-63
2023/06/05 11:19:36;;;;;;;4.75;2.20;;;;;;;33.19;34.71;100874.06;8450181;27;20482;-63
2023/06/05 11:23:36;;;;;;;4.72;1.85;;;;;;;32.84;34.98;100871.19;8449818;27;20547;-63
2023/06/05 11:27:46;;;;;;;3.70;1.70;;;;;;;33.55;36.97;100866.47;8448725;27;20039;-63
2023/06/05 11:31:46;;;;;;;3.70;1.80;;;;;;;33.93;33.97;100869.50;8449144;27;20044;-63
2023/06/05 11:35:50;;;;;;;4.72;1.70;;;;;;;33.25;35.91;100860.88;8448047;27;20048;-64
2023/06/05 11:39:50;;;;;;;6.53;1.85;;;;;;;33.76;34.76;100862.50;8444127;28;20039;-63
2023/06/05 11:43:50;;;;;;;5.00;2.33;;;;;;;32.84;35.01;100854.38;8447656;27;20051;-64
2023/06/05 11:47:51;;;;;;;6.63;2.13;;;;;;;32.07;34.36;100853.56;8429714;28;20270;-64
2023/06/05 11:51:52;;;;;;;6.07;1.80;;;;;;;32.66;35.14;100846.53;8447196;28;20282;-63
2023/06/05 11:55:55;;;;;;;2.88;1.67;;;;;;;32.16;35.18;100835.16;8448020;28;20460;-64
2023/06/05 11:59:55;;;;;;;4.70;1.98;;;;;;;32.57;35.68;100841.75;8447540;28;20044;-63
2023/06/05 12:04:11;;;;;;;5.15;1.92;;;;;;;32.96;38.52;100829.75;8447426;28;20588;-63
2023/06/05 12:08:34;;;;;;;4.28;1.88;;;;;;;32.47;37.41;100836.94;8429284;28;20031;-64
2023/06/05 12:12:49;;;;;;;3.72;2.10;;;;;;;30.67;42.08;100824.56;8443489;27;20036;-64
2023/06/05 12:16:50;;;;;;;6.68;2.15;;;;;;;29.25;42.24;100821.06;8407800;28;20257;-64
2023/06/05 12:20:50;;;;;;;7.25;2.30;;;;;;;28.44;41.38;100820.69;8408283;28;20060;-64
2023/06/05 12:24:50;;;;;;;3.53;2.03;;;;;;;28.43;41.59;100816.22;8412876;28;20075;-65
2023/06/05 12:29:04;;;;;;;5.47;2.10;;;;;;;28.22;43.08;100816.91;8400331;28;20496;-65
2023/06/05 12:33:05;;;;;;;;;;;;;;;28.06;40.95;100806.59;8388328;28;20059;-65
2023/06/05 12:37:08;;;;;;;3.47;1.90;;;;;;;27.72;40.79;100804.75;8390206;28;19924;-65
2023/06/05 12:41:08;;;;;;;4.78;2.10;;;;;;;27.59;40.69;100805.84;8408858;28;20036;-65
2023/06/05 12:45:10;;;;;;;6.63;2.60;;;;;;;27.32;41.53;100792.72;8383172;28;20033;-65
2023/06/05 12:49:11;;;;;;;5.05;2.35;;;;;;;27.46;41.80;100791.38;8367654;28;20036;-65
2023/06/05 12:53:12;;;;;;;4.35;2.03;;;;;;;27.48;42.16;100789.19;8404705;28;20517;-65
2023/06/05 12:57:13;;;;;;;4.15;2.22;;;;;;;27.82;42.04;100789.13;8387500;28;20045;-65
2023/06/05 13:01:14;;;;;;;3.83;2.22;;;;;;;27.57;41.39;100788.56;8390239;28;20143;-65
2023/06/05 13:05:15;;;;;;;4.72;2.20;;;;;;;27.43;41.37;100780.75;8390939;28;20040;-65
2023/06/05 13:09:16;;;;;;;6.70;2.33;;;;;;;27.81;42.24;100775.47;8393539;28;20032;-65
2023/06/05 13:13:16;;;;;;;8.10;2.70;;;;;;;27.51;41.48;100783.16;8401493;28;20050;-65
2023/06/05 13:17:17;;;;;;;5.35;2.47;;;;;;;27.40;41.83;100775.66;8402806;28;20036;-65
2023/06/05 13:21:17;;;;;;;4.05;2.47;;;;;;;27.79;45.38;100769.31;8405931;28;20054;-65
2023/06/05 13:25:18;;;;;;;6.90;2.13;;;;;;;27.71;42.29;100759.41;8369598;28;20446;-64
2023/06/05 13:29:18;;;;;;;5.18;1.73;;;;;;;27.61;41.94;100762.00;8353404;28;20072;-64
2023/06/05 13:33:19;;;;;;;4.05;2.22;;;;;;;27.41;41.68;100755.97;8355229;28;20126;-64
2023/06/05 13:37:20;;;;;;;6.75;2.22;;;;;;;27.34;41.43;100755.28;8355535;28;20072;-65
2023/06/05 13:41:21;;;;;;;4.53;2.25;;;;;;;27.32;42.09;100745.50;8363660;28;20036;-65
2023/06/05 13:45:22;;;;;;;5.22;2.00;;;;;;;27.41;43.27;100741.28;8389305;28;20111;-65
2023/06/05 13:49:22;;;;;;;5.50;2.25;;;;;;;27.51;41.77;100736.78;8385219;28;20048;-66
2023/06/05 13:53:23;;;;;;;7.22;2.10;;;;;;;27.54;42.69;100743.78;8387683;28;20123;-64
2023/06/05 13:57:24;;;;;;;4.25;2.22;;;;;;;27.27;41.76;100737.06;8397179;28;20451;-63
2023/06/05 14:01:24;;;;;;;5.18;2.28;;;;;;;27.63;43.03;100731.19;8420175;28;20039;-63
2023/06/05 14:05:25;;;;;;;4.15;1.83;;;;;;;27.55;41.32;100737.97;8420505;28;20117;-63
2023/06/05 14:09:27;;;;;;;3.97;2.55;;;;;;;27.26;43.05;100730.66;8418581;28;20040;-62
2023/06/05 14:13:27;;;;;;;3.92;2.25;;;;;;;27.39;42.29;100735.97;8411507;28;20380;-63
2023/06/05 14:17:28;;;;;;;4.72;2.47;;;;;;;27.39;42.87;100718.44;8420995;28;20036;-63
2023/06/05 14:21:28;;;;;;;4.68;1.88;;;;;;;27.35;43.21;100728.38;8421171;28;20442;-63
2023/06/05 14:25:30;;;;;;;6.85;2.17;;;;;;;27.40;42.83;100722.91;8419515;28;20040;-63
2023/06/05 14:29:30;;;;;;;4.53;2.22;;;;;;;27.23;42.00;100702.50;8418326;28;20039;-63
2023/06/05 14:33:31;;;;;;;3.95;2.10;;;;;;;27.32;42.84;100721.34;8419705;28;20074;-63
2023/06/05 14:37:31;;;;;;;3.05;1.95;;;;;;;27.42;42.26;100720.72;8417386;28;20119;-63
2023/06/05 14:41:32;;;;;;;7.78;2.55;;;;;;;27.21;42.15;100710.22;8416306;28;20097;-63
2023/06/05 14:45:33;;;;;;;6.28;2.17;;;;;;;27.42;43.25;100720.72;8409883;28;20039;-63
2023/06/05 14:49:33;;;;;;;3.38;2.00;;;;;;;27.36;42.74;100713.38;8417175;28;20032;-64
2023/06/05 14:53:34;;;;;;;2.85;2.05;;;;;;;27.28;43.17;100710.97;8414505;28;20028;-63
2023/06/05 14:57:36;;;;;;;4.53;1.95;;;;;;;27.35;43.93;100706.16;8417920;28;20105;-64
2023/06/05 15:01:36;;;;;;;7.05;2.13;;;;;;;27.54;43.18;100713.22;8415473;28;20689;-63
2023/06/05 15:05:37;;;;;;;2.90;1.65;;;;;;;27.49;42.33;100702.84;8416740;28;20043;-64
2023/06/05 15:09:37;;;;;;;5.18;2.03;;;;;;;27.44;42.37;100701.91;8416670;28;20039;-64
2023/06/05 15:13:37;;;;;;;5.87;2.57;;;;;;;27.44;42.93;100705.50;8417015;28;20396;-63
2023/06/05 15:17:38;;;;;;;5.87;2.10;;;;;;;27.41;42.60;100702.38;8416842;28;20285;-64
2023/06/05 15:21:39;;;;;;;9.55;2.15;;;;;;;27.40;42.10;100711.78;8417600;28;20358;-64
2023/06/05 15:25:39;;;;;;;2.75;1.75;;;;;;;27.40;43.67;100693.19;8406448;28;20486;-63
2023/06/05 15:29:39;;;;;;;3.15;1.98;;;;;;;27.42;42.98;100692.94;8382345;28;20094;-64
2023/06/05 15:33:40;;;;;;;6.00;2.57;;;;;;;27.32;42.95;100684.41;8383143;28;20044;-64
2023/06/05 15:37:40;;;;;;;6.10;2.50;;;;;;;27.41;43.20;100688.50;8381863;28;20278;-64
2023/06/05 15:41:41;;;;;;;3.37;2.43;;;;;;;27.30;42.62;100686.59;8391863;28;20278;-63
2023/06/05 15:45:42;;;;;;;4.55;2.33;;;;;;;27.47;43.14;100687.50;8407191;28;20664;-64
2023/06/05 15:49:43;;;;;;;4.40;2.10;;;;;;;27.27;42.97;100689.84;8403959;28;20032;-64
2023/06/05 15:53:44;;;;;;;4.63;2.25;;;;;;;27.21;42.36;100685.25;8415963;28;20092;-64
2023/06/05 15:57:48;;;;;;;4.05;1.95;;;;;;;27.26;43.05;100679.84;8413138;28;20071;-63
2023/06/05 16:01:49;;;;;;;4.18;2.08;;;;;;;27.25;43.25;100675.34;8407792;28;20113;-62
2023/06/05 16:05:50;;;;;;;6.60;1.95;;;;;;;27.28;43.01;100670.16;8417850;27;20498;-64
2023/06/05 16:09:50;;;;;;;3.55;1.90;;;;;;;27.18;42.73;100680.19;8414437;28;20460;-64
2023/06/05 16:13:51;;;;;;;3.28;2.05;;;;;;;27.20;42.53;100666.91;8413807;28;20051;-64
2023/06/05 16:17:51;;;;;;;5.78;2.50;;;;;;;27.20;43.74;100666.91;8422792;28;20471;-63
2023/06/05 16:21:52;;;;;;;5.38;2.90;;;;;;;27.07;42.87;100658.84;8418421;28;20387;-64
2023/06/05 16:25:53;;;;;;;3.35;2.28;;;;;;;27.04;42.36;100660.16;8412132;28;20044;-64
2023/06/05 16:29:54;;;;;;;3.20;2.10;;;;;;;26.97;42.84;100659.47;8411444;28;20413;-63
2023/06/05 16:33:55;;;;;;;5.95;2.05;;;;;;;26.97;42.92;100658.59;8415326;28;20127;-63
2023/06/05 16:37:56;;;;;;;3.75;2.15;;;;;;;26.91;43.16;100654.88;8418987;28;20494;-63
2023/06/05 16:42:01;;;;;;;3.35;2.30;;;;;;;26.91;42.83;100659.56;8368926;28;20110;-64
2023/06/05 16:46:02;;;;;;;3.97;2.08;;;;;;;26.76;43.44;100658.16;8404637;28;20457;-63
2023/06/05 16:50:02;;;;;;;4.75;2.60;;;;;;;26.74;43.69;100649.22;8404185;28;20049;-64
2023/06/05 16:54:04;;;;;;;5.97;2.33;;;;;;;26.84;43.81;100655.00;8393372;28;20040;-63
2023/06/05 16:58:05;;;;;;;4.63;2.35;;;;;;;26.83;42.87;100655.25;8405731;27;20123;-64
2023/06/05 17:02:05;;;;;;;4.50;2.65;;;;;;;26.76;43.54;100652.63;8398465;28;20040;-64
2023/06/05 17:06:06;;;;;;;7.80;2.33;;;;;;;26.75;44.22;100644.53;8394517;28;20044;-64
2023/06/05 17:10:07;;;;;;;5.00;2.13;;;;;;;26.70;42.88;100636.09;8407548;28;20044;-65
2023/06/05 17:14:08;;;;;;;4.25;2.08;;;;;;;26.66;43.59;100641.25;8418452;28;20044;-66
2023/06/05 17:18:08;;;;;;;3.95;2.08;;;;;;;26.63;44.03;100644.50;8417975;28;20051;-66
2023/06/05 17:22:09;;;;;;;6.10;2.45;;;;;;;26.51;44.05;100642.81;8399130;28;20090;-65
2023/06/05 17:26:09;;;;;;;4.60;1.70;;;;;;;26.48;44.00;100649.69;8417336;28;20044;-65
2023/06/05 17:30:12;;;;;;;4.85;2.58;;;;;;;26.43;44.13;100652.34;8412878;28;20060;-66
2023/06/05 17:34:12;;;;;;;9.20;2.50;;;;;;;26.41;44.06;100654.50;8420630;27;20035;-65
2023/06/05 17:38:13;;;;;;;5.10;2.20;;;;;;;26.33;43.33;100660.41;8403726;27;21417;-65
2023/06/05 17:42:13;;;;;;;5.30;2.05;;;;;;;26.28;44.06;100654.72;8413881;28;20521;-65
2023/06/05 17:46:13;;;;;;;6.30;2.33;;;;;;;26.22;44.50;100643.75;8374248;28;20051;-65
2023/06/05 17:50:14;;;;;;;2.60;1.80;;;;;;;26.20;44.51;100652.31;8402193;28;20325;-65
2023/06/05 17:54:14;;;;;;;4.78;2.30;;;;;;;26.10;43.57;100646.50;8436025;28;20040;-66
2023/06/05 17:58:16;;;;;;;3.13;1.92;;;;;;;26.05;43.70;100651.94;8429521;28;20044;-65
2023/06/05 18:02:16;;;;;;;4.40;2.00;;;;;;;26.01;44.59;100653.47;8419917;28;20066;-66
2023/06/05 18:06:16;;;;;;;4.07;2.15;;;;;;;25.94;44.58;100663.78;8370219;28;20065;-66
2023/06/05 18:10:17;;;;;;;4.03;1.70;;;;;;;25.89;44.71;100665.59;8422078;28;20040;-66
2023/06/05 18:14:17;;;;;;;4.70;2.05;;;;;;;25.82;44.90;100668.44;8404530;28;20040;-65
2023/06/05 18:18:18;;;;;;;2.70;1.65;;;;;;;25.73;44.54;100656.03;8382590;28;20055;-64
2023/06/05 18:22:18;;;;;;;3.63;2.30;;;;;;;25.71;45.12;100669.25;8371683;28;20044;-64
2023/06/05 18:26:20;;;;;;;3.83;2.38;;;;;;;25.63;44.83;100660.44;8372912;28;20720;-65
2023/06/05 18:30:20;;;;;;;4.10;1.63;;;;;;;25.61;45.06;100673.69;8380575;28;20051;-65
2023/06/05 18:34:21;;;;;;;7.38;2.10;;;;;;;25.49;45.55;100670.84;8373600;28;20049;-65
2023/06/05 18:38:21;;;;;;;5.03;1.77;;;;;;;25.40;45.98;100671.41;8377701;28;20135;-65
2023/06/05 18:42:22;;;;;;;4.80;2.33;;;;;;;25.31;46.42;100665.28;8380638;28;20131;-65
2023/06/05 18:46:22;;;;;;;4.70;1.95;;;;;;;25.29;45.94;100673.00;8378154;28;20036;-66
2023/06/05 18:50:23;;;;;;;5.18;1.90;;;;;;;25.23;45.99;100671.16;8381381;28;20041;-64
2023/06/05 18:54:23;;;;;;;2.55;1.95;;;;;;;25.08;46.40;100667.94;8377676;28;20051;-65